Time;durP1;ratioP1;P1;durP2;ratioP2;P2;SDS_P1;SDS_P2;PMS_P1;PMS_P2;Temp;Humidity;BMP_temperature;BMP_pressure;BME280_temperature;BME280_humidity;BME280_pressure;Samples;Min_cycle;Max_cycle;Signal;HPM_P1;HPM_P2
2023/04/07 00:01:01;;;;;;;2.03;1.40;;;18.40;52.50;;;;;;4990802;28;20225;-52
2023/04/07 00:03:32;;;;;;;2.08;1.48;;;18.40;52.50;;;;;;4990816;28;20695;-52
2023/04/07 00:06:03;;;;;;;2.40;1.58;;;18.40;52.50;;;;;;5005095;28;20275;-53
2023/04/07 00:08:35;;;;;;;1.65;1.50;;;18.40;52.70;;;;;;5011163;28;20220;-53
2023/04/07 00:11:07;;;;;;;1.90;1.73;;;18.40;52.60;;;;;;5011191;28;20219;-53
2023/04/07 00:13:38;;;;;;;1.67;1.40;;;18.40;52.50;;;;;;5011500;28;20708;-49
2023/04/07 00:16:09;;;;;;;2.17;1.75;;;18.40;52.60;;;;;;5011520;28;20208;-54
2023/04/07 00:18:39;;;;;;;2.80;1.85;;;18.50;52.60;;;;;;5011737;28;20211;-55
2023/04/07 00:21:10;;;;;;;1.85;1.60;;;18.50;52.60;;;;;;5011544;28;20223;-53
2023/04/07 00:23:42;;;;;;;2.55;1.88;;;18.50;52.60;;;;;;5011113;28;20229;-51
2023/04/07 00:26:13;;;;;;;2.80;1.80;;;18.50;52.60;;;;;;5013573;28;20204;-56
2023/04/07 00:28:44;;;;;;;2.88;1.83;;;18.50;52.60;;;;;;5014979;28;20227;-55
2023/04/07 00:31:14;;;;;;;4.55;2.30;;;18.50;52.60;;;;;;5014908;28;20217;-53
2023/04/07 00:33:47;;;;;;;2.70;2.08;;;18.50;52.60;;;;;;5015533;28;20685;-52
2023/04/07 00:36:17;;;;;;;3.08;2.10;;;18.50;52.70;;;;;;5015170;28;20201;-53
2023/04/07 00:38:50;;;;;;;2.85;2.40;;;18.50;52.60;;;;;;5014987;28;20791;-56
2023/04/07 00:41:21;;;;;;;2.53;2.33;;;18.50;52.70;;;;;;5015280;28;20698;-53
2023/04/07 00:43:52;;;;;;;2.92;2.30;;;18.60;52.70;;;;;;5014996;28;20205;-51
2023/04/07 00:46:25;;;;;;;2.70;2.22;;;18.50;52.70;;;;;;5015042;28;20204;-55
2023/04/07 00:48:56;;;;;;;2.67;2.20;;;18.60;52.70;;;;;;5014824;28;20220;-54
2023/04/07 00:51:26;;;;;;;2.72;2.17;;;18.60;52.70;;;;;;5014574;28;20224;-53
2023/04/07 00:53:59;;;;;;;2.55;2.05;;;18.60;52.70;;;;;;5012733;28;20208;-53
2023/04/07 00:56:30;;;;;;;3.38;2.78;;;18.60;52.70;;;;;;5014533;28;20243;-54
2023/04/07 00:59:01;;;;;;;2.78;2.25;;;18.60;52.80;;;;;;5014410;28;20200;-51
2023/04/07 01:01:37;;;;;;;3.35;2.40;;;18.60;52.70;;;;;;5014357;28;20629;-55
2023/04/07 01:04:11;;;;;;;2.83;2.38;;;18.60;52.60;;;;;;5014477;28;20200;-50
2023/04/07 01:06:49;;;;;;;3.25;2.25;;;18.60;52.60;;;;;;5014466;28;20200;-53
2023/04/07 01:09:27;;;;;;;2.97;2.40;;;18.60;52.70;;;;;;5014308;28;20587;-53
2023/04/07 01:12:06;;;;;;;3.78;2.70;;;18.70;52.70;;;;;;5014098;28;20201;-50
2023/04/07 01:14:42;;;;;;;4.45;2.63;;;18.70;52.80;;;;;;5013916;28;20210;-51
2023/04/07 01:17:14;;;;;;;5.05;3.40;;;18.70;52.80;;;;;;5014351;28;20699;-52
2023/04/07 01:19:50;;;;;;;5.82;3.78;;;18.70;52.80;;;;;;5014394;28;20213;-50
2023/04/07 01:22:25;;;;;;;5.68;3.45;;;18.70;52.80;;;;;;5013947;28;20196;-51
2023/04/07 01:25:26;;;;;;;5.60;3.13;;;18.70;52.80;;;;;;5013870;28;20196;-54
2023/04/07 01:28:25;;;;;;;5.93;3.38;;;18.70;52.80;;;;;;4988285;28;20616;-52
2023/04/07 01:31:00;;;;;;;7.30;3.63;;;18.80;52.80;;;;;;5013973;28;20635;-57
2023/04/07 01:33:33;;;;;;;7.88;4.13;;;18.80;52.80;;;;;;5014203;28;20274;-53
2023/04/07 01:36:04;;;;;;;9.85;4.50;;;18.80;52.80;;;;;;5013790;28;20243;-53
2023/04/07 01:38:36;;;;;;;9.80;4.88;;;18.80;52.80;;;;;;5013651;28;20255;-55
2023/04/07 01:41:07;;;;;;;9.90;5.07;;;18.80;52.80;;;;;;5013916;28;20244;-52
2023/04/07 01:43:40;;;;;;;8.63;4.78;;;18.80;52.80;;;;;;5013430;28;20223;-50
2023/04/07 01:46:13;;;;;;;8.07;4.35;;;18.80;52.80;;;;;;5011547;28;20251;-52
2023/04/07 01:48:43;;;;;;;8.43;4.90;;;18.80;52.80;;;;;;5010450;28;20225;-54
2023/04/07 01:51:17;;;;;;;8.95;4.88;;;18.80;52.80;;;;;;5013730;28;20739;-54
2023/04/07 01:53:49;;;;;;;9.02;4.72;;;18.80;52.80;;;;;;5012750;28;20217;-55
2023/04/07 01:56:19;;;;;;;9.63;4.40;;;18.90;52.80;;;;;;4995057;28;20193;-55
2023/04/07 01:58:50;;;;;;;8.02;4.38;;;18.90;52.80;;;;;;4993724;28;20649;-53
2023/04/07 02:01:23;;;;;;;7.32;4.30;;;18.90;52.80;;;;;;4993280;28;20232;-51
2023/04/07 02:03:58;;;;;;;7.07;4.20;;;18.90;52.80;;;;;;4994058;28;20209;-52
2023/04/07 02:06:36;;;;;;;9.07;4.97;;;19.00;53.40;;;;;;5010293;28;20204;-51
2023/04/07 02:09:12;;;;;;;8.10;4.03;;;19.00;52.80;;;;;;5012736;28;20220;-53
2023/04/07 02:11:44;;;;;;;9.30;5.18;;;19.00;52.80;;;;;;5012878;28;20217;-53
2023/04/07 02:14:16;;;;;;;6.05;3.75;;;19.00;52.80;;;;;;5013228;28;20688;-54
2023/04/07 02:16:50;;;;;;;8.48;4.82;;;19.00;52.80;;;;;;5013123;28;20292;-51
2023/04/07 02:19:20;;;;;;;9.13;5.10;;;19.00;52.80;;;;;;5013277;28;20197;-51
2023/04/07 02:21:53;;;;;;;8.02;4.20;;;19.00;52.80;;;;;;5013135;28;20201;-53
2023/04/07 02:24:23;;;;;;;8.43;4.65;;;19.00;52.70;;;;;;5012788;28;20247;-52
2023/04/07 02:26:55;;;;;;;7.72;4.28;;;19.00;52.70;;;;;;5012698;28;20228;-55
2023/04/07 02:29:25;;;;;;;7.72;4.40;;;19.00;52.70;;;;;;5012463;28;20228;-52
2023/04/07 02:31:58;;;;;;;8.98;4.63;;;19.00;52.70;;;;;;4998501;28;20197;-54
2023/04/07 02:34:29;;;;;;;7.63;4.32;;;19.00;52.70;;;;;;4993491;28;20212;-51
2023/04/07 02:37:00;;;;;;;7.95;4.68;;;19.00;53.30;;;;;;5011722;28;20235;-55
2023/04/07 02:39:30;;;;;;;7.05;4.28;;;19.00;52.70;;;;;;5011680;28;20204;-53
2023/04/07 02:42:01;;;;;;;7.82;4.78;;;19.00;52.70;;;;;;5012305;28;20192;-54
2023/04/07 02:44:32;;;;;;;7.65;4.05;;;19.10;52.80;;;;;;5012607;28;20205;-50
2023/04/07 02:47:04;;;;;;;7.28;4.45;;;19.00;52.70;;;;;;5011995;28;20233;-53
2023/04/07 02:49:35;;;;;;;6.90;4.20;;;19.10;52.70;;;;;;5012411;28;20775;-52
2023/04/07 02:52:06;;;;;;;7.75;4.60;;;19.10;52.70;;;;;;5012516;28;20201;-53
2023/04/07 02:54:36;;;;;;;8.50;4.50;;;19.10;52.70;;;;;;5012281;28;20197;-51
2023/04/07 02:57:07;;;;;;;6.85;4.40;;;19.10;52.70;;;;;;5012059;28;20201;-53
2023/04/07 02:59:38;;;;;;;7.20;4.07;;;19.10;52.60;;;;;;5011719;28;20204;-55
2023/04/07 03:02:10;;;;;;;6.82;4.13;;;19.10;52.70;;;;;;5011862;28;20201;-54
2023/04/07 03:04:41;;;;;;;6.35;4.13;;;19.10;52.60;;;;;;5011661;28;20188;-55
2023/04/07 03:07:11;;;;;;;5.95;4.28;;;19.10;52.60;;;;;;5012315;28;20197;-51
2023/04/07 03:09:42;;;;;;;7.82;4.18;;;19.10;52.60;;;;;;5012190;28;20749;-55
2023/04/07 03:12:13;;;;;;;6.15;3.72;;;19.10;52.60;;;;;;5012473;28;20224;-50
2023/04/07 03:14:43;;;;;;;6.35;3.80;;;19.10;52.60;;;;;;5012334;28;20204;-54
2023/04/07 03:17:16;;;;;;;6.53;4.05;;;19.10;52.60;;;;;;5011586;28;20200;-53
2023/04/07 03:19:47;;;;;;;5.85;3.47;;;19.10;52.60;;;;;;5011644;28;20246;-52
2023/04/07 03:22:17;;;;;;;6.97;3.88;;;19.20;52.60;;;;;;5012056;28;20243;-50
2023/04/07 03:24:48;;;;;;;5.80;3.67;;;19.10;52.60;;;;;;5011951;28;20201;-56
2023/04/07 03:27:19;;;;;;;6.45;4.15;;;19.10;52.60;;;;;;5011902;28;20605;-56
2023/04/07 03:29:50;;;;;;;6.55;3.78;;;19.20;52.60;;;;;;5010077;28;20259;-54
2023/04/07 03:32:22;;;;;;;5.85;3.67;;;19.20;52.60;;;;;;5011545;28;20200;-54
2023/04/07 03:34:53;;;;;;;5.28;3.33;;;19.20;52.60;;;;;;5011793;28;20204;-53
2023/04/07 03:37:23;;;;;;;5.72;3.55;;;19.20;52.60;;;;;;5011701;28;20204;-52
2023/04/07 03:39:54;;;;;;;6.22;3.53;;;19.20;52.60;;;;;;5012078;28;20235;-55
2023/04/07 03:42:25;;;;;;;5.57;3.53;;;19.20;52.50;;;;;;5011550;28;20220;-56
2023/04/07 03:44:55;;;;;;;5.78;3.53;;;19.20;52.50;;;;;;5011789;28;20196;-56
2023/04/07 03:47:28;;;;;;;5.47;3.10;;;19.20;52.50;;;;;;5011764;28;20197;-54
2023/04/07 03:49:58;;;;;;;5.68;3.25;;;19.20;52.50;;;;;;5010717;28;20225;-53
2023/04/07 03:52:29;;;;;;;5.93;3.45;;;19.20;52.50;;;;;;4994468;28;20552;-53
2023/04/07 03:55:00;;;;;;;5.22;3.40;;;19.20;52.50;;;;;;4992383;28;20198;-53
2023/04/07 03:57:30;;;;;;;5.03;3.17;;;19.20;52.50;;;;;;4994785;28;20200;-55
2023/04/07 04:00:01;;;;;;;4.28;2.92;;;19.20;52.50;;;;;;4993554;28;20229;-55
2023/04/07 04:02:34;;;;;;;4.65;3.33;;;19.20;52.60;;;;;;4995978;28;20264;-51
2023/04/07 04:05:04;;;;;;;5.20;3.13;;;19.20;52.50;;;;;;5001344;28;20209;-52
2023/04/07 04:07:36;;;;;;;4.95;3.25;;;19.20;52.50;;;;;;5015856;28;20200;-54
2023/04/07 04:10:07;;;;;;;5.70;3.33;;;19.20;52.50;;;;;;5015700;28;20287;-55
2023/04/07 04:12:38;;;;;;;5.82;3.42;;;19.20;52.50;;;;;;5015325;28;20204;-54
2023/04/07 04:15:09;;;;;;;4.28;3.17;;;19.20;52.50;;;;;;5015046;28;20196;-54
2023/04/07 04:17:42;;;;;;;4.85;2.90;;;19.20;52.50;;;;;;5014963;28;20668;-54
2023/04/07 04:20:13;;;;;;;4.03;2.90;;;19.20;52.50;;;;;;5014924;28;20756;-54
2023/04/07 04:22:44;;;;;;;5.97;3.20;;;19.20;52.40;;;;;;5013406;28;20276;-55
2023/04/07 04:25:14;;;;;;;4.15;2.65;;;19.20;52.40;;;;;;5015167;28;20201;-52
2023/04/07 04:27:45;;;;;;;4.35;2.70;;;19.20;52.40;;;;;;5014813;28;20200;-53
2023/04/07 04:30:16;;;;;;;4.65;3.30;;;19.20;52.40;;;;;;5010388;28;20221;-52
2023/04/07 04:32:48;;;;;;;4.93;2.50;;;19.20;52.30;;;;;;4995296;28;20907;-55
2023/04/07 04:35:19;;;;;;;4.93;2.60;;;19.20;52.40;;;;;;5002889;28;20267;-56
2023/04/07 04:37:50;;;;;;;3.85;2.70;;;19.20;52.40;;;;;;5015188;28;20196;-53
2023/04/07 04:40:20;;;;;;;4.80;2.70;;;19.20;52.50;;;;;;5015579;28;20228;-53
2023/04/07 04:42:51;;;;;;;3.60;2.30;;;19.20;52.40;;;;;;5014897;28;20209;-53
2023/04/07 04:45:22;;;;;;;5.07;2.97;;;19.20;52.50;;;;;;5014761;28;20658;-55
2023/04/07 04:47:54;;;;;;;4.60;2.70;;;19.30;52.50;;;;;;5014969;28;20208;-54
2023/04/07 04:50:25;;;;;;;4.97;2.50;;;19.20;52.40;;;;;;5014605;28;20229;-55
2023/04/07 04:52:55;;;;;;;3.92;2.30;;;19.30;52.50;;;;;;5012766;28;20197;-55
2023/04/07 04:55:26;;;;;;;2.92;2.30;;;19.30;52.50;;;;;;5014160;28;20193;-52
2023/04/07 04:57:57;;;;;;;4.25;2.70;;;19.30;52.50;;;;;;5014278;28;20201;-54
2023/04/07 05:00:27;;;;;;;4.03;2.67;;;19.30;52.40;;;;;;5013738;28;20228;-52
2023/04/07 05:03:00;;;;;;;4.75;3.20;;;19.30;52.40;;;;;;5014348;28;20197;-56
2023/04/07 05:05:31;;;;;;;4.70;2.75;;;19.30;52.40;;;;;;5014516;28;20208;-50
2023/04/07 05:08:01;;;;;;;4.50;2.90;;;19.30;52.40;;;;;;5014666;28;20851;-55
2023/04/07 05:10:32;;;;;;;3.72;2.60;;;19.30;52.40;;;;;;5013863;28;20229;-54
2023/04/07 05:13:02;;;;;;;3.55;2.65;;;19.30;52.30;;;;;;5012696;28;20185;-53
2023/04/07 05:15:33;;;;;;;4.22;2.53;;;19.30;52.40;;;;;;5013204;28;20656;-56
2023/04/07 05:18:05;;;;;;;4.78;2.97;;;19.30;52.40;;;;;;5014119;28;20204;-53
2023/04/07 05:20:36;;;;;;;4.93;2.92;;;19.30;52.40;;;;;;5014754;28;20224;-55
2023/04/07 05:23:07;;;;;;;3.28;2.35;;;19.30;52.40;;;;;;5013711;28;20551;-52
2023/04/07 05:25:37;;;;;;;3.47;2.70;;;19.30;52.40;;;;;;5013639;28;20201;-52
2023/04/07 05:28:08;;;;;;;3.67;2.17;;;19.30;52.40;;;;;;5014241;28;20602;-50
2023/04/07 05:30:39;;;;;;;5.10;2.63;;;19.30;52.30;;;;;;5014103;28;20243;-52
2023/04/07 05:33:12;;;;;;;2.97;2.28;;;19.30;52.30;;;;;;5013802;28;20207;-53
2023/04/07 05:35:42;;;;;;;3.63;2.35;;;19.30;52.30;;;;;;5013846;28;20357;-52
2023/04/07 05:38:13;;;;;;;4.13;2.30;;;19.30;52.30;;;;;;5014264;28;20811;-56
2023/04/07 05:40:44;;;;;;;3.03;2.05;;;19.30;52.30;;;;;;5014596;28;20220;-56
2023/04/07 05:43:14;;;;;;;4.63;2.67;;;19.30;52.30;;;;;;5012558;28;20208;-54
2023/04/07 05:45:45;;;;;;;2.65;2.00;;;19.30;52.30;;;;;;5012106;28;20197;-53
2023/04/07 05:48:17;;;;;;;3.75;2.60;;;19.30;52.30;;;;;;5013248;28;20599;-54
2023/04/07 05:50:48;;;;;;;4.32;2.70;;;19.30;52.20;;;;;;5013375;28;20236;-55
2023/04/07 05:53:18;;;;;;;4.28;2.55;;;19.30;52.30;;;;;;5010233;28;20616;-55
2023/04/07 05:55:49;;;;;;;4.05;2.42;;;19.30;52.30;;;;;;4994533;28;20650;-55
2023/04/07 05:58:20;;;;;;;3.30;1.98;;;19.20;52.20;;;;;;4997090;28;20193;-53
2023/04/07 06:00:51;;;;;;;4.05;2.22;;;19.30;52.80;;;;;;4993939;28;20698;-52
2023/04/07 06:03:23;;;;;;;2.72;2.10;;;19.20;52.20;;;;;;4993649;28;20205;-53
2023/04/07 06:05:54;;;;;;;2.70;1.92;;;19.30;52.30;;;;;;5004172;28;20204;-55
2023/04/07 06:08:25;;;;;;;3.83;2.38;;;19.20;52.30;;;;;;5013331;28;20205;-51
2023/04/07 06:10:55;;;;;;;4.00;2.17;;;19.30;52.30;;;;;;5013415;28;20237;-55
2023/04/07 06:13:26;;;;;;;2.85;2.08;;;19.30;52.30;;;;;;5013220;28;20205;-55
2023/04/07 06:15:58;;;;;;;3.03;2.40;;;19.20;52.20;;;;;;5012829;28;20197;-51
2023/04/07 06:18:30;;;;;;;3.00;2.40;;;19.20;52.20;;;;;;5012944;28;20204;-55
2023/04/07 06:21:01;;;;;;;2.88;2.05;;;19.20;52.20;;;;;;5013025;28;20220;-53
2023/04/07 06:23:32;;;;;;;2.58;1.95;;;19.20;52.20;;;;;;5011890;28;20193;-54
2023/04/07 06:26:02;;;;;;;2.70;2.20;;;19.20;52.20;;;;;;5012558;28;20619;-54
2023/04/07 06:28:33;;;;;;;2.58;2.30;;;19.20;52.20;;;;;;5013267;28;20661;-55
2023/04/07 06:31:03;;;;;;;3.08;1.95;;;19.20;52.20;;;;;;5013096;28;20225;-55
2023/04/07 06:33:36;;;;;;;2.88;2.10;;;19.20;52.20;;;;;;5012985;28;20201;-53
2023/04/07 06:36:07;;;;;;;3.08;2.30;;;19.20;52.20;;;;;;5012759;28;20259;-56
2023/04/07 06:38:37;;;;;;;3.13;2.10;;;19.20;52.20;;;;;;5002341;28;20208;-54
2023/04/07 06:41:10;;;;;;;4.47;2.40;;;19.20;52.20;;;;;;4993056;28;20229;-55
2023/04/07 06:43:41;;;;;;;4.57;2.75;;;19.20;52.20;;;;;;4992379;28;20202;-54
2023/04/07 06:46:11;;;;;;;4.63;3.35;;;19.20;52.20;;;;;;4992737;28;20208;-52
2023/04/07 06:48:44;;;;;;;4.55;3.13;;;19.20;52.20;;;;;;4992941;28;20204;-57
2023/04/07 06:51:15;;;;;;;3.42;2.75;;;19.20;52.20;;;;;;4993118;28;20232;-54
2023/04/07 06:53:47;;;;;;;5.10;3.28;;;19.20;52.20;;;;;;4998622;28;20197;-53
2023/04/07 06:56:17;;;;;;;6.32;3.65;;;19.20;52.20;;;;;;5012381;28;20288;-54
2023/04/07 06:58:48;;;;;;;4.13;2.97;;;19.20;52.20;;;;;;5010467;28;20197;-53
2023/04/07 07:01:19;;;;;;;6.05;3.97;;;19.20;52.20;;;;;;5012247;28;20224;-52
2023/04/07 07:03:51;;;;;;;5.30;3.40;;;19.20;52.20;;;;;;5012113;28;20197;-53
2023/04/07 07:06:22;;;;;;;4.88;3.33;;;19.10;52.20;;;;;;5012175;28;20676;-52
2023/04/07 07:08:53;;;;;;;4.35;3.17;;;19.20;52.20;;;;;;5012295;28;20208;-53
2023/04/07 07:11:23;;;;;;;5.10;3.60;;;19.20;52.20;;;;;;5012200;28;20724;-55
2023/04/07 07:13:54;;;;;;;5.22;3.33;;;19.10;52.20;;;;;;5011615;28;20204;-56
2023/04/07 07:16:24;;;;;;;5.30;3.03;;;19.10;52.20;;;;;;5011965;28;20627;-53
2023/04/07 07:18:57;;;;;;;4.85;3.25;;;19.20;52.20;;;;;;5012197;28;20559;-52
2023/04/07 07:21:28;;;;;;;5.68;3.65;;;19.10;52.20;;;;;;5012169;28;20217;-53
2023/04/07 07:23:58;;;;;;;5.22;3.50;;;19.10;52.20;;;;;;5011415;28;20189;-53
2023/04/07 07:26:29;;;;;;;4.72;3.28;;;19.10;52.20;;;;;;5011847;28;20197;-54
2023/04/07 07:29:00;;;;;;;4.68;3.30;;;19.10;52.20;;;;;;5011997;28;20200;-56
2023/04/07 07:31:31;;;;;;;4.07;3.35;;;19.10;52.20;;;;;;5011527;28;20765;-56
2023/04/07 07:34:03;;;;;;;5.15;3.40;;;19.10;52.20;;;;;;5011351;28;20236;-50
2023/04/07 07:36:34;;;;;;;3.90;3.03;;;19.10;52.20;;;;;;5008353;28;20206;-49
2023/04/07 07:39:04;;;;;;;4.70;3.50;;;19.10;52.20;;;;;;5011954;28;20197;-56
2023/04/07 07:41:35;;;;;;;4.55;3.05;;;19.10;52.20;;;;;;5012023;28;20217;-51
2023/04/07 07:44:06;;;;;;;4.63;3.00;;;19.10;52.20;;;;;;5011715;28;20258;-56
2023/04/07 07:46:36;;;;;;;5.25;3.67;;;19.10;52.20;;;;;;5011588;28;20208;-52
2023/04/07 07:49:09;;;;;;;4.50;2.97;;;19.00;52.20;;;;;;5007369;28;20649;-51
2023/04/07 07:51:40;;;;;;;4.53;3.05;;;19.00;52.20;;;;;;5010610;28;20738;-54
2023/04/07 07:54:10;;;;;;;4.90;3.20;;;19.00;52.20;;;;;;5011844;28;20668;-49
2023/04/07 07:56:41;;;;;;;4.70;3.05;;;19.00;52.20;;;;;;4995491;28;20308;-55
2023/04/07 07:59:11;;;;;;;5.90;3.60;;;19.10;52.20;;;;;;4991417;28;20193;-56
2023/04/07 08:01:42;;;;;;;4.93;3.38;;;19.00;52.20;;;;;;4991550;28;20222;-53
2023/04/07 08:04:14;;;;;;;3.75;2.92;;;19.00;52.50;;;;;;4991623;28;20204;-54
2023/04/07 08:06:45;;;;;;;3.45;2.72;;;19.00;52.10;;;;;;5010715;28;20208;-51
2023/04/07 08:09:16;;;;;;;4.82;3.28;;;19.00;52.10;;;;;;5011767;28;20200;-54
2023/04/07 08:11:47;;;;;;;5.03;3.40;;;19.00;52.20;;;;;;5011482;28;20264;-56
2023/04/07 08:14:17;;;;;;;4.30;2.95;;;19.00;52.10;;;;;;5011511;28;20200;-53
2023/04/07 08:16:48;;;;;;;4.88;3.45;;;19.00;52.20;;;;;;5011551;28;20219;-54
2023/04/07 08:19:21;;;;;;;4.47;3.10;;;19.00;52.20;;;;;;5011469;28;20197;-55
2023/04/07 08:21:52;;;;;;;4.32;2.95;;;19.00;52.20;;;;;;5011406;28;20224;-55
2023/04/07 08:24:22;;;;;;;4.63;3.15;;;19.00;52.20;;;;;;5011790;28;20224;-56
2023/04/07 08:26:53;;;;;;;3.80;2.67;;;19.00;52.20;;;;;;5011695;28;20677;-53
2023/04/07 08:29:23;;;;;;;4.45;3.05;;;19.00;52.20;;;;;;5011553;28;20204;-51
2023/04/07 08:31:54;;;;;;;4.10;3.00;;;18.90;52.20;;;;;;5011235;28;20239;-52
2023/04/07 08:34:27;;;;;;;4.65;3.25;;;18.90;52.20;;;;;;5011315;28;20197;-55
2023/04/07 08:36:57;;;;;;;4.18;3.20;;;18.90;52.20;;;;;;5011601;28;20201;-55
2023/04/07 08:39:28;;;;;;;4.47;3.10;;;18.90;52.20;;;;;;5011475;28;20201;-56
2023/04/07 08:41:59;;;;;;;4.22;3.05;;;18.90;52.20;;;;;;5009910;28;20705;-55
2023/04/07 08:44:31;;;;;;;4.28;3.08;;;18.90;52.20;;;;;;5011074;28;20606;-54
2023/04/07 08:47:02;;;;;;;4.95;3.20;;;18.90;52.20;;;;;;5011515;28;20189;-52
2023/04/07 08:49:36;;;;;;;3.67;3.05;;;18.90;52.10;;;;;;4995220;28;20201;-54
2023/04/07 08:52:08;;;;;;;4.97;3.15;;;18.90;52.20;;;;;;4994981;28;20238;-55
2023/04/07 08:54:39;;;;;;;4.95;3.05;;;18.90;52.10;;;;;;5001316;28;20201;-56
2023/04/07 08:57:11;;;;;;;5.28;3.50;;;18.90;52.20;;;;;;5014070;28;20224;-56
2023/04/07 08:59:44;;;;;;;4.55;2.50;;;18.90;52.20;;;;;;5014116;28;20201;-56
2023/04/07 09:02:15;;;;;;;3.70;2.95;;;18.80;52.10;;;;;;5014076;28;20691;-54
2023/04/07 09:04:48;;;;;;;4.18;2.78;;;18.80;52.20;;;;;;5014181;28;20232;-57
2023/04/07 09:07:19;;;;;;;3.90;2.70;;;18.80;52.20;;;;;;5013998;28;20687;-53
2023/04/07 09:09:50;;;;;;;3.78;3.03;;;18.80;52.20;;;;;;5014242;28;20622;-54
2023/04/07 09:12:21;;;;;;;4.72;2.83;;;18.80;52.20;;;;;;5013962;28;20592;-57
2023/04/07 09:14:51;;;;;;;4.72;2.92;;;18.80;52.20;;;;;;5014192;28;20671;-51
2023/04/07 09:17:22;;;;;;;3.40;2.60;;;18.80;52.20;;;;;;5014093;28;20197;-54
2023/04/07 09:19:57;;;;;;;4.07;3.03;;;18.80;52.20;;;;;;5014060;28;20196;-53
2023/04/07 09:22:44;;;;;;;3.92;2.92;;;18.80;52.20;;;;;;5013951;28;20200;-52
2023/04/07 09:25:19;;;;;;;3.92;2.97;;;18.80;52.20;;;;;;5013893;28;20619;-55
2023/04/07 09:28:03;;;;;;;3.33;2.75;;;18.80;52.10;;;;;;5013592;28;20194;-55
2023/04/07 09:30:35;;;;;;;3.97;3.00;;;18.80;52.10;;;;;;5013796;28;20270;-54
2023/04/07 09:33:06;;;;;;;3.65;2.88;;;18.80;52.20;;;;;;5009332;28;20217;-55
2023/04/07 09:35:54;;;;;;;4.10;3.15;;;18.80;52.20;;;;;;5012630;28;20207;-56
2023/04/07 09:38:25;;;;;;;4.30;3.00;;;18.70;52.10;;;;;;5014084;28;20205;-54
2023/04/07 09:41:09;;;;;;;4.38;2.67;;;18.70;52.10;;;;;;5013910;28;20227;-56
2023/04/07 09:43:41;;;;;;;3.90;3.00;;;18.70;52.10;;;;;;5013713;28;20288;-53
2023/04/07 09:46:15;;;;;;;3.60;2.97;;;18.70;52.20;;;;;;5013755;28;20239;-56
2023/04/07 09:48:47;;;;;;;4.63;2.90;;;18.70;52.10;;;;;;5014335;28;20644;-53
2023/04/07 09:51:21;;;;;;;3.55;2.72;;;18.70;52.20;;;;;;5013145;28;20232;-54
2023/04/07 09:53:52;;;;;;;4.70;3.28;;;18.70;52.20;;;;;;5010411;28;20196;-51
2023/04/07 09:56:24;;;;;;;3.50;2.70;;;18.70;52.10;;;;;;5012761;28;20682;-52
2023/04/07 09:58:54;;;;;;;4.55;2.97;;;18.60;52.10;;;;;;4994269;28;20202;-56
2023/04/07 10:01:25;;;;;;;3.20;2.50;;;18.60;52.10;;;;;;4993844;28;20225;-54
2023/04/07 10:03:56;;;;;;;3.50;2.80;;;18.60;52.10;;;;;;4994007;28;20209;-53
2023/04/07 10:06:29;;;;;;;3.92;3.00;;;18.60;52.10;;;;;;5010118;28;20205;-53
2023/04/07 10:09:00;;;;;;;3.85;2.72;;;18.60;52.10;;;;;;5013425;28;20200;-53
2023/04/07 10:11:31;;;;;;;3.50;2.80;;;18.60;52.10;;;;;;5013070;28;20299;-56
2023/04/07 10:14:01;;;;;;;3.00;2.50;;;18.60;52.10;;;;;;5013065;28;20197;-52
2023/04/07 10:16:33;;;;;;;3.65;2.60;;;18.60;52.10;;;;;;5013414;28;20215;-53
2023/04/07 10:19:04;;;;;;;3.63;2.60;;;18.60;52.10;;;;;;5013062;28;20201;-56
2023/04/07 10:21:39;;;;;;;3.08;2.45;;;18.60;52.20;;;;;;5013111;28;20252;-53
2023/04/07 10:24:19;;;;;;;3.50;2.70;;;18.60;52.20;;;;;;5011549;28;20200;-56
2023/04/07 10:26:55;;;;;;;3.67;2.60;;;18.60;52.20;;;;;;5011868;28;20648;-54
2023/04/07 10:29:28;;;;;;;3.88;2.70;;;18.50;52.20;;;;;;5012587;28;20219;-56
2023/04/07 10:32:00;;;;;;;3.35;2.40;;;18.60;52.20;;;;;;5012535;28;20707;-56
2023/04/07 10:34:59;;;;;;;3.35;2.63;;;18.50;52.10;;;;;;5012998;28;20776;-54
2023/04/07 10:37:33;;;;;;;3.55;2.65;;;18.50;52.10;;;;;;5013142;28;20197;-51
2023/04/07 10:40:30;;;;;;;3.80;2.50;;;18.50;52.10;;;;;;5013600;28;20283;-51
2023/04/07 10:43:01;;;;;;;3.67;2.45;;;18.50;52.10;;;;;;5012820;28;20208;-55
2023/04/07 10:46:05;;;;;;;3.65;2.30;;;18.50;52.10;;;;;;5012671;28;20210;-52
2023/04/07 10:48:36;;;;;;;3.17;2.47;;;18.50;52.10;;;;;;5011566;28;20588;-54
2023/04/07 10:51:17;;;;;;;3.88;2.67;;;18.50;52.10;;;;;;4993030;28;20224;-54
2023/04/07 10:54:19;;;;;;;2.45;2.20;;;18.50;52.10;;;;;;4993155;28;20252;-52
2023/04/07 10:57:14;;;;;;;2.70;2.35;;;18.50;52.20;;;;;;4993030;28;20201;-54
2023/04/07 11:00:18;;;;;;;2.83;2.22;;;18.50;52.20;;;;;;4992682;28;20634;-54
2023/04/07 11:02:48;;;;;;;3.95;2.63;;;18.40;52.10;;;;;;5002736;28;20192;-56
2023/04/07 11:05:26;;;;;;;3.38;2.50;;;18.40;52.10;;;;;;5012304;28;20224;-55
2023/04/07 11:08:01;;;;;;;4.43;2.53;;;18.40;52.20;;;;;;5011558;28;20204;-54
2023/04/07 11:10:31;;;;;;;3.35;2.35;;;18.40;52.20;;;;;;5012174;28;20271;-54
2023/04/07 11:13:08;;;;;;;2.58;2.10;;;18.40;52.20;;;;;;5012175;28;20220;-53
2023/04/07 11:15:39;;;;;;;2.88;2.33;;;18.40;52.20;;;;;;5011506;28;20243;-55
2023/04/07 11:18:17;;;;;;;3.88;2.50;;;18.40;52.20;;;;;;5010754;28;20619;-54
2023/04/07 11:20:53;;;;;;;3.55;2.58;;;18.40;52.20;;;;;;5011626;28;20326;-54
2023/04/07 11:23:26;;;;;;;3.58;2.50;;;18.40;52.20;;;;;;5012213;28;20232;-52
2023/04/07 11:26:02;;;;;;;3.67;2.47;;;18.40;52.20;;;;;;5011859;28;20200;-52
2023/04/07 11:28:35;;;;;;;3.13;2.40;;;18.40;52.10;;;;;;5011870;28;20242;-54
2023/04/07 11:31:06;;;;;;;3.83;2.53;;;18.40;52.20;;;;;;5011688;28;20216;-51
2023/04/07 11:33:37;;;;;;;2.72;2.28;;;18.40;52.10;;;;;;5011225;28;20602;-55
2023/04/07 11:36:09;;;;;;;3.95;2.15;;;18.30;52.10;;;;;;5011590;28;20204;-55
2023/04/07 11:38:42;;;;;;;2.75;2.15;;;18.30;52.10;;;;;;5011950;28;20212;-51
2023/04/07 11:41:17;;;;;;;3.83;2.30;;;18.30;52.10;;;;;;5008965;28;20217;-54
2023/04/07 11:43:49;;;;;;;2.85;2.40;;;18.30;52.70;;;;;;5011307;28;20203;-53
2023/04/07 11:46:22;;;;;;;3.00;2.40;;;18.30;52.10;;;;;;5011545;28;20322;-52
2023/04/07 11:48:53;;;;;;;3.22;2.33;;;18.30;52.10;;;;;;5011759;28;20657;-53
2023/04/07 11:51:24;;;;;;;3.50;2.28;;;18.30;52.10;;;;;;5011601;28;20618;-52
2023/04/07 11:53:58;;;;;;;2.67;2.00;;;18.30;52.10;;;;;;5011827;28;20311;-53
2023/04/07 11:56:29;;;;;;;3.05;2.50;;;18.30;52.10;;;;;;5000651;28;20205;-53
2023/04/07 11:59:02;;;;;;;2.83;2.05;;;18.30;52.10;;;;;;4994475;28;20258;-56
2023/04/07 12:01:42;;;;;;;2.53;2.25;;;18.30;52.10;;;;;;4992028;28;20217;-53
2023/04/07 12:04:16;;;;;;;2.97;1.92;;;18.30;52.10;;;;;;4991840;28;20203;-51
2023/04/07 12:06:47;;;;;;;2.88;2.30;;;18.30;52.10;;;;;;5010837;28;20208;-53
2023/04/07 12:09:33;;;;;;;3.67;2.47;;;18.20;52.10;;;;;;5008940;28;20649;-57
2023/04/07 12:12:05;;;;;;;3.00;2.42;;;18.30;52.10;;;;;;5010750;28;20747;-55
2023/04/07 12:14:37;;;;;;;2.83;2.25;;;18.20;52.00;;;;;;5011224;28;20223;-52
2023/04/07 12:17:08;;;;;;;3.03;2.20;;;18.20;52.10;;;;;;5011325;28;20204;-54
2023/04/07 12:19:38;;;;;;;3.22;2.08;;;18.20;52.10;;;;;;5011248;28;20259;-55
2023/04/07 12:22:09;;;;;;;2.75;1.88;;;18.20;52.10;;;;;;5014529;28;20228;-51
2023/04/07 12:24:40;;;;;;;3.58;2.38;;;18.20;52.10;;;;;;5015462;28;20589;-53
2023/04/07 12:27:10;;;;;;;2.80;2.20;;;18.20;52.10;;;;;;5015219;28;20288;-56
2023/04/07 12:29:43;;;;;;;3.30;2.40;;;18.20;52.10;;;;;;5015302;28;20229;-53
2023/04/07 12:32:14;;;;;;;3.80;2.42;;;18.20;52.10;;;;;;5014965;28;20228;-54
2023/04/07 12:34:44;;;;;;;3.10;2.60;;;18.20;52.10;;;;;;5014940;28;20275;-57
2023/04/07 12:37:15;;;;;;;3.47;2.80;;;18.20;52.10;;;;;;5015282;28;20275;-52
2023/04/07 12:39:46;;;;;;;3.13;2.30;;;18.20;52.10;;;;;;5015079;28;20205;-54
2023/04/07 12:42:16;;;;;;;3.42;2.25;;;18.10;52.00;;;;;;5015443;28;20563;-50
2023/04/07 12:44:49;;;;;;;3.67;2.53;;;18.10;52.00;;;;;;5014819;28;20653;-54
2023/04/07 12:47:19;;;;;;;3.60;2.25;;;18.10;52.10;;;;;;5011583;28;20672;-54
2023/04/07 12:49:50;;;;;;;3.20;2.55;;;18.10;52.10;;;;;;4995343;28;20562;-56
2023/04/07 12:52:21;;;;;;;3.95;2.63;;;18.10;52.10;;;;;;4995076;28;20236;-56
2023/04/07 12:54:52;;;;;;;4.07;2.60;;;18.10;52.10;;;;;;4995492;28;20201;-56
2023/04/07 12:57:23;;;;;;;3.05;2.40;;;18.10;52.10;;;;;;4995238;28;20284;-52
2023/04/07 12:59:55;;;;;;;3.22;2.40;;;18.10;52.10;;;;;;4994119;28;20201;-53
2023/04/07 13:02:26;;;;;;;3.25;2.35;;;18.10;52.10;;;;;;4993628;28;20217;-54
2023/04/07 13:04:57;;;;;;;3.33;2.45;;;18.10;52.10;;;;;;4999210;28;20664;-55
2023/04/07 13:07:27;;;;;;;3.08;2.10;;;18.00;52.00;;;;;;5014722;28;20200;-53
2023/04/07 13:09:58;;;;;;;3.88;2.50;;;18.00;52.10;;;;;;5014014;28;20204;-55
2023/04/07 13:12:28;;;;;;;4.05;2.60;;;18.00;52.10;;;;;;4994992;28;20562;-54
2023/04/07 13:15:01;;;;;;;3.33;2.45;;;18.00;52.10;;;;;;5008145;28;20188;-54